This is the latest recevied weather packets stored in our database for station/object DL9GJ-6. If no packets are shown the sender has not sent any weather packets the latest 1 day(s).
| Time | Temp. | Humidity | Pressure | Rain* | Wind** | Luminosity | Snow |
|---|---|---|---|---|---|---|---|
| 1778079740 | 16.11° C | 69% | 1004.1 hPa | 0 mm | - | 61 W/m² | - |
| 1778079381 | 16.11° C | 67% | 1003.9 hPa | 0 mm | - | 75 W/m² | - |
| 1778079020 | 16.67° C | 68% | 1003.9 hPa | 0 mm | - | 69 W/m² | - |
| 1778076486 | 17.22° C | 74% | 1004.1 hPa | 0.25 mm | - | 570 W/m² | - |
| 1778075781 | 16.11° C | 78% | 1004.1 hPa | 0.25 mm | - | 207 W/m² | - |
| 1778075061 | 16.11° C | 79% | 1004.5 hPa | 0.25 mm | - | 114 W/m² | - |
| 1778074701 | 16.11° C | 78% | 1004.5 hPa | 0.25 mm | - | 130 W/m² | - |
| 1778074341 | 16.11° C | 77% | 1004.6 hPa | 0.25 mm | - | 117 W/m² | - |
| 1778071101 | 16.67° C | 70% | 1004.2 hPa | 0 mm | - | 335 W/m² | - |
| 1778070380 | 16.67° C | 71% | 1004.2 hPa | 0 mm | - | 246 W/m² | - |
| 1778070020 | 16.67° C | 73% | 1004.3 hPa | 0 mm | - | 187 W/m² | - |
| 1778069660 | 16.67° C | 72% | 1004.2 hPa | 0 mm | - | 126 W/m² | - |
| 1778069301 | 16.67° C | 70% | 1004.2 hPa | 0 mm | - | 145 W/m² | - |
| 1778068940 | 16.67° C | 71% | 1004.3 hPa | 0 mm | - | 129 W/m² | - |
| 1778068580 | 16.67° C | 70% | 1004.3 hPa | 0 mm | - | 186 W/m² | - |
| 1778065700 | 17.22° C | 71% | 1004.6 hPa | 0 mm | - | 708 W/m² | - |
| 1778064981 | 16.67° C | 73% | 1004.7 hPa | 0 mm | - | 671 W/m² | - |
| 1778064621 | 16.11° C | 73% | 1004.8 hPa | 0 mm | - | 464 W/m² | - |
| 1778064261 | 16.11° C | 74% | 1004.8 hPa | 0 mm | - | 617 W/m² | - |
| 1778063901 | 15.56° C | 75% | 1004.9 hPa | 0 mm | - | 395 W/m² | - |
| 1778063541 | 15.56° C | 75% | 1004.8 hPa | 0 mm | - | 364 W/m² | - |
| 1778063531 | 15.56° C | 75% | 1004.8 hPa | 0 mm | - | 364 W/m² | - |
| 1778063181 | 15.56° C | 74% | 1004.9 hPa | 0 mm | - | 254 W/m² | - |
| 1778063173 | 15.56° C | 74% | 1004.9 hPa | 0 mm | - | 254 W/m² | - |
| 1778060300 | 15.56° C | 73% | 1005.5 hPa | 0 mm | - | 393 W/m² | - |
* Rain latest hour (hover to see other rain measurements)
** Current wind speed in m/s (hover to see current wind gust speed)